sensor_id;sensor_type;location;lat;lon;timestamp;P1;durP1;ratioP1;P2;durP2;ratioP2
26211;SDS011;13951;49.516;6.094;2023-11-18T00:00:02;6.87;;;4.80;;
26211;SDS011;13951;49.516;6.094;2023-11-18T00:02:43;5.27;;;4.50;;
26211;SDS011;13951;49.516;6.094;2023-11-18T00:05:17;5.70;;;4.40;;
26211;SDS011;13951;49.516;6.094;2023-11-18T00:07:50;6.00;;;4.07;;
26211;SDS011;13951;49.516;6.094;2023-11-18T00:10:24;4.80;;;4.30;;
26211;SDS011;13951;49.516;6.094;2023-11-18T00:12:57;5.37;;;4.47;;
26211;SDS011;13951;49.516;6.094;2023-11-18T00:15:31;16.57;;;5.00;;
26211;SDS011;13951;49.516;6.094;2023-11-18T00:18:07;7.90;;;4.70;;
26211;SDS011;13951;49.516;6.094;2023-11-18T00:20:40;6.83;;;5.27;;
26211;SDS011;13951;49.516;6.094;2023-11-18T00:23:13;9.53;;;5.30;;
26211;SDS011;13951;49.516;6.094;2023-11-18T00:25:48;13.30;;;5.70;;
26211;SDS011;13951;49.516;6.094;2023-11-18T00:28:21;11.53;;;5.10;;
26211;SDS011;13951;49.516;6.094;2023-11-18T00:30:55;9.10;;;5.53;;
26211;SDS011;13951;49.516;6.094;2023-11-18T00:33:28;12.13;;;5.43;;
26211;SDS011;13951;49.516;6.094;2023-11-18T00:36:02;16.50;;;5.07;;
26211;SDS011;13951;49.516;6.094;2023-11-18T00:38:35;8.90;;;5.30;;
26211;SDS011;13951;49.516;6.094;2023-11-18T00:41:10;11.13;;;5.30;;
26211;SDS011;13951;49.516;6.094;2023-11-18T00:43:45;12.07;;;5.87;;
26211;SDS011;13951;49.516;6.094;2023-11-18T00:46:18;18.80;;;5.30;;
26211;SDS011;13951;49.516;6.094;2023-11-18T00:48:51;20.10;;;6.60;;
26211;SDS011;13951;49.516;6.094;2023-11-18T00:51:25;7.03;;;5.23;;
26211;SDS011;13951;49.516;6.094;2023-11-18T00:53:59;10.17;;;5.50;;
26211;SDS011;13951;49.516;6.094;2023-11-18T00:56:34;7.80;;;4.93;;
26211;SDS011;13951;49.516;6.094;2023-11-18T00:59:07;14.67;;;5.33;;
26211;SDS011;13951;49.516;6.094;2023-11-18T01:01:41;10.30;;;5.30;;
26211;SDS011;13951;49.516;6.094;2023-11-18T01:04:15;13.47;;;5.53;;
26211;SDS011;13951;49.516;6.094;2023-11-18T01:06:49;13.60;;;5.60;;
26211;SDS011;13951;49.516;6.094;2023-11-18T01:09:23;11.73;;;5.97;;
26211;SDS011;13951;49.516;6.094;2023-11-18T01:11:57;13.63;;;6.13;;
26211;SDS011;13951;49.516;6.094;2023-11-18T01:14:40;18.83;;;6.63;;
26211;SDS011;13951;49.516;6.094;2023-11-18T01:17:14;14.07;;;6.20;;
26211;SDS011;13951;49.516;6.094;2023-11-18T01:19:48;11.50;;;6.20;;
26211;SDS011;13951;49.516;6.094;2023-11-18T01:22:22;10.23;;;6.47;;
26211;SDS011;13951;49.516;6.094;2023-11-18T01:24:56;13.53;;;6.10;;
26211;SDS011;13951;49.516;6.094;2023-11-18T01:27:31;11.03;;;5.63;;
26211;SDS011;13951;49.516;6.094;2023-11-18T01:30:08;10.63;;;5.30;;
26211;SDS011;13951;49.516;6.094;2023-11-18T01:32:42;10.33;;;5.07;;
26211;SDS011;13951;49.516;6.094;2023-11-18T01:35:16;14.13;;;5.60;;
26211;SDS011;13951;49.516;6.094;2023-11-18T01:37:49;11.83;;;5.00;;
26211;SDS011;13951;49.516;6.094;2023-11-18T01:40:23;14.23;;;5.47;;
26211;SDS011;13951;49.516;6.094;2023-11-18T01:42:56;10.40;;;4.93;;
26211;SDS011;13951;49.516;6.094;2023-11-18T01:45:30;13.07;;;5.30;;
26211;SDS011;13951;49.516;6.094;2023-11-18T01:48:03;15.10;;;4.80;;
26211;SDS011;13951;49.516;6.094;2023-11-18T01:50:38;12.43;;;4.83;;
26211;SDS011;13951;49.516;6.094;2023-11-18T01:53:12;14.13;;;5.30;;
26211;SDS011;13951;49.516;6.094;2023-11-18T01:55:49;11.83;;;5.20;;
26211;SDS011;13951;49.516;6.094;2023-11-18T01:58:23;13.20;;;5.10;;
26211;SDS011;13951;49.516;6.094;2023-11-18T02:00:58;12.10;;;5.30;;
26211;SDS011;13951;49.516;6.094;2023-11-18T02:03:31;21.57;;;5.33;;
26211;SDS011;13951;49.516;6.094;2023-11-18T02:06:05;14.47;;;5.70;;
26211;SDS011;13951;49.516;6.094;2023-11-18T02:08:39;14.90;;;5.30;;
26211;SDS011;13951;49.516;6.094;2023-11-18T02:11:17;14.30;;;5.40;;
26211;SDS011;13951;49.516;6.094;2023-11-18T02:13:51;9.30;;;4.83;;
26211;SDS011;13951;49.516;6.094;2023-11-18T02:16:26;10.23;;;4.67;;
26211;SDS011;13951;49.516;6.094;2023-11-18T02:19:00;7.37;;;4.70;;
26211;SDS011;13951;49.516;6.094;2023-11-18T02:21:37;15.00;;;4.60;;
26211;SDS011;13951;49.516;6.094;2023-11-18T02:24:20;9.60;;;4.40;;
26211;SDS011;13951;49.516;6.094;2023-11-18T02:26:57;8.50;;;5.40;;
26211;SDS011;13951;49.516;6.094;2023-11-18T02:29:38;9.43;;;5.00;;
26211;SDS011;13951;49.516;6.094;2023-11-18T02:32:19;7.33;;;4.70;;
26211;SDS011;13951;49.516;6.094;2023-11-18T02:34:58;7.40;;;4.50;;
26211;SDS011;13951;49.516;6.094;2023-11-18T02:37:37;9.50;;;4.33;;
26211;SDS011;13951;49.516;6.094;2023-11-18T02:40:12;9.53;;;4.43;;
26211;SDS011;13951;49.516;6.094;2023-11-18T02:42:48;10.10;;;4.27;;
26211;SDS011;13951;49.516;6.094;2023-11-18T02:45:25;10.20;;;4.83;;
26211;SDS011;13951;49.516;6.094;2023-11-18T02:47:59;7.97;;;4.47;;
26211;SDS011;13951;49.516;6.094;2023-11-18T02:50:33;9.73;;;4.67;;
26211;SDS011;13951;49.516;6.094;2023-11-18T02:53:10;8.27;;;4.40;;
26211;SDS011;13951;49.516;6.094;2023-11-18T02:55:43;10.37;;;4.63;;
26211;SDS011;13951;49.516;6.094;2023-11-18T02:58:18;7.80;;;4.20;;
26211;SDS011;13951;49.516;6.094;2023-11-18T03:00:52;7.70;;;4.40;;
26211;SDS011;13951;49.516;6.094;2023-11-18T03:03:26;14.67;;;5.33;;
26211;SDS011;13951;49.516;6.094;2023-11-18T03:06:00;11.27;;;5.87;;
26211;SDS011;13951;49.516;6.094;2023-11-18T03:08:34;20.03;;;6.07;;
26211;SDS011;13951;49.516;6.094;2023-11-18T03:11:07;24.03;;;5.23;;
26211;SDS011;13951;49.516;6.094;2023-11-18T03:13:41;17.47;;;5.43;;
26211;SDS011;13951;49.516;6.094;2023-11-18T03:16:14;19.40;;;5.57;;
26211;SDS011;13951;49.516;6.094;2023-11-18T03:18:49;18.63;;;5.53;;
26211;SDS011;13951;49.516;6.094;2023-11-18T03:21:22;23.07;;;5.30;;
26211;SDS011;13951;49.516;6.094;2023-11-18T03:23:56;21.20;;;5.80;;
26211;SDS011;13951;49.516;6.094;2023-11-18T03:26:29;19.70;;;6.10;;
26211;SDS011;13951;49.516;6.094;2023-11-18T03:29:04;18.97;;;5.63;;
26211;SDS011;13951;49.516;6.094;2023-11-18T03:31:37;17.80;;;5.50;;
26211;SDS011;13951;49.516;6.094;2023-11-18T03:34:11;15.27;;;5.60;;
26211;SDS011;13951;49.516;6.094;2023-11-18T03:36:44;16.47;;;6.27;;
26211;SDS011;13951;49.516;6.094;2023-11-18T03:39:18;16.43;;;6.00;;
26211;SDS011;13951;49.516;6.094;2023-11-18T03:41:52;13.77;;;5.90;;
26211;SDS011;13951;49.516;6.094;2023-11-18T03:44:25;17.87;;;5.90;;
26211;SDS011;13951;49.516;6.094;2023-11-18T03:46:59;21.50;;;5.73;;
26211;SDS011;13951;49.516;6.094;2023-11-18T03:49:35;16.53;;;5.40;;
26211;SDS011;13951;49.516;6.094;2023-11-18T03:52:09;14.37;;;5.80;;
26211;SDS011;13951;49.516;6.094;2023-11-18T03:54:42;13.17;;;5.63;;
26211;SDS011;13951;49.516;6.094;2023-11-18T03:57:16;13.97;;;5.90;;
26211;SDS011;13951;49.516;6.094;2023-11-18T03:59:50;12.20;;;6.03;;
26211;SDS011;13951;49.516;6.094;2023-11-18T04:02:23;17.57;;;7.17;;
26211;SDS011;13951;49.516;6.094;2023-11-18T04:04:57;14.07;;;6.73;;
26211;SDS011;13951;49.516;6.094;2023-11-18T04:07:30;16.63;;;6.57;;
26211;SDS011;13951;49.516;6.094;2023-11-18T04:10:04;21.13;;;6.60;;
26211;SDS011;13951;49.516;6.094;2023-11-18T04:12:39;23.07;;;7.33;;
26211;SDS011;13951;49.516;6.094;2023-11-18T04:15:12;20.53;;;8.13;;
26211;SDS011;13951;49.516;6.094;2023-11-18T04:17:46;23.50;;;8.37;;
26211;SDS011;13951;49.516;6.094;2023-11-18T04:20:19;21.03;;;8.13;;
26211;SDS011;13951;49.516;6.094;2023-11-18T04:22:53;16.23;;;8.60;;
26211;SDS011;13951;49.516;6.094;2023-11-18T04:25:26;22.73;;;9.57;;
26211;SDS011;13951;49.516;6.094;2023-11-18T04:28:00;25.87;;;9.30;;
26211;SDS011;13951;49.516;6.094;2023-11-18T04:30:33;28.63;;;9.43;;
26211;SDS011;13951;49.516;6.094;2023-11-18T04:33:07;27.73;;;9.57;;
26211;SDS011;13951;49.516;6.094;2023-11-18T04:35:40;31.00;;;10.33;;
26211;SDS011;13951;49.516;6.094;2023-11-18T04:38:14;22.87;;;10.40;;
26211;SDS011;13951;49.516;6.094;2023-11-18T04:40:47;53.00;;;10.17;;
26211;SDS011;13951;49.516;6.094;2023-11-18T04:43:21;34.57;;;10.90;;
26211;SDS011;13951;49.516;6.094;2023-11-18T04:46:12;33.87;;;10.00;;
26211;SDS011;13951;49.516;6.094;2023-11-18T04:48:46;54.33;;;9.90;;
26211;SDS011;13951;49.516;6.094;2023-11-18T04:51:19;41.07;;;10.40;;
26211;SDS011;13951;49.516;6.094;2023-11-18T04:53:53;48.63;;;10.53;;
26211;SDS011;13951;49.516;6.094;2023-11-18T04:56:27;60.83;;;9.80;;
26211;SDS011;13951;49.516;6.094;2023-11-18T04:59:00;27.90;;;8.70;;
26211;SDS011;13951;49.516;6.094;2023-11-18T05:01:34;53.20;;;9.73;;
26211;SDS011;13951;49.516;6.094;2023-11-18T05:04:09;57.87;;;9.80;;
26211;SDS011;13951;49.516;6.094;2023-11-18T05:06:43;60.27;;;10.40;;
26211;SDS011;13951;49.516;6.094;2023-11-18T05:09:16;41.67;;;9.63;;
26211;SDS011;13951;49.516;6.094;2023-11-18T05:11:51;41.80;;;9.40;;
26211;SDS011;13951;49.516;6.094;2023-11-18T05:14:24;49.73;;;10.03;;
26211;SDS011;13951;49.516;6.094;2023-11-18T05:16:59;40.43;;;9.57;;
26211;SDS011;13951;49.516;6.094;2023-11-18T05:19:32;42.23;;;9.37;;
26211;SDS011;13951;49.516;6.094;2023-11-18T05:22:05;47.90;;;10.50;;
26211;SDS011;13951;49.516;6.094;2023-11-18T05:24:39;70.07;;;10.00;;
26211;SDS011;13951;49.516;6.094;2023-11-18T05:27:16;62.30;;;9.10;;
26211;SDS011;13951;49.516;6.094;2023-11-18T05:29:50;30.63;;;9.57;;
26211;SDS011;13951;49.516;6.094;2023-11-18T05:32:27;49.77;;;9.63;;
26211;SDS011;13951;49.516;6.094;2023-11-18T05:35:01;52.13;;;9.63;;
26211;SDS011;13951;49.516;6.094;2023-11-18T05:37:38;61.60;;;9.43;;
26211;SDS011;13951;49.516;6.094;2023-11-18T05:40:13;45.63;;;9.50;;
26211;SDS011;13951;49.516;6.094;2023-11-18T05:42:48;46.00;;;9.13;;
26211;SDS011;13951;49.516;6.094;2023-11-18T05:45:24;42.53;;;9.20;;
26211;SDS011;13951;49.516;6.094;2023-11-18T05:48:00;54.60;;;10.13;;
26211;SDS011;13951;49.516;6.094;2023-11-18T05:50:35;46.80;;;9.90;;
26211;SDS011;13951;49.516;6.094;2023-11-18T05:53:08;55.80;;;10.03;;
26211;SDS011;13951;49.516;6.094;2023-11-18T05:55:42;45.33;;;8.20;;
26211;SDS011;13951;49.516;6.094;2023-11-18T05:58:15;47.13;;;9.93;;
26211;SDS011;13951;49.516;6.094;2023-11-18T06:00:49;58.63;;;9.10;;
26211;SDS011;13951;49.516;6.094;2023-11-18T06:03:22;55.10;;;10.10;;
26211;SDS011;13951;49.516;6.094;2023-11-18T06:05:55;45.03;;;9.47;;
26211;SDS011;13951;49.516;6.094;2023-11-18T06:08:29;34.40;;;8.80;;
26211;SDS011;13951;49.516;6.094;2023-11-18T06:11:04;45.97;;;9.27;;
26211;SDS011;13951;49.516;6.094;2023-11-18T06:13:46;43.83;;;9.80;;
26211;SDS011;13951;49.516;6.094;2023-11-18T06:16:23;34.90;;;9.00;;
26211;SDS011;13951;49.516;6.094;2023-11-18T06:18:57;37.20;;;9.43;;
26211;SDS011;13951;49.516;6.094;2023-11-18T06:21:32;56.03;;;9.60;;
26211;SDS011;13951;49.516;6.094;2023-11-18T06:24:06;40.03;;;10.07;;
26211;SDS011;13951;49.516;6.094;2023-11-18T06:26:39;49.33;;;10.53;;
26211;SDS011;13951;49.516;6.094;2023-11-18T06:29:14;59.43;;;10.83;;
26211;SDS011;13951;49.516;6.094;2023-11-18T06:31:47;42.73;;;10.80;;
26211;SDS011;13951;49.516;6.094;2023-11-18T06:34:21;65.47;;;11.13;;
26211;SDS011;13951;49.516;6.094;2023-11-18T06:36:54;52.57;;;11.67;;
26211;SDS011;13951;49.516;6.094;2023-11-18T06:39:28;71.77;;;12.07;;
26211;SDS011;13951;49.516;6.094;2023-11-18T06:42:02;62.53;;;11.63;;
26211;SDS011;13951;49.516;6.094;2023-11-18T06:44:37;102.03;;;11.93;;
26211;SDS011;13951;49.516;6.094;2023-11-18T06:47:12;55.77;;;12.17;;
26211;SDS011;13951;49.516;6.094;2023-11-18T06:49:51;86.27;;;12.30;;
26211;SDS011;13951;49.516;6.094;2023-11-18T06:52:25;43.37;;;10.37;;
26211;SDS011;13951;49.516;6.094;2023-11-18T06:54:59;50.97;;;12.37;;
26211;SDS011;13951;49.516;6.094;2023-11-18T06:57:32;65.20;;;11.83;;
26211;SDS011;13951;49.516;6.094;2023-11-18T07:00:06;34.60;;;11.67;;
26211;SDS011;13951;49.516;6.094;2023-11-18T07:02:41;41.13;;;12.87;;
26211;SDS011;13951;49.516;6.094;2023-11-18T07:05:14;33.07;;;12.13;;
26211;SDS011;13951;49.516;6.094;2023-11-18T07:07:48;50.13;;;11.43;;
26211;SDS011;13951;49.516;6.094;2023-11-18T07:10:21;39.43;;;11.00;;
26211;SDS011;13951;49.516;6.094;2023-11-18T07:12:55;42.63;;;12.37;;
26211;SDS011;13951;49.516;6.094;2023-11-18T07:15:28;68.20;;;11.70;;
26211;SDS011;13951;49.516;6.094;2023-11-18T07:18:01;50.37;;;10.23;;
26211;SDS011;13951;49.516;6.094;2023-11-18T07:20:35;49.67;;;11.90;;
26211;SDS011;13951;49.516;6.094;2023-11-18T07:23:08;74.93;;;11.07;;
26211;SDS011;13951;49.516;6.094;2023-11-18T07:25:43;80.13;;;12.83;;
26211;SDS011;13951;49.516;6.094;2023-11-18T07:28:18;106.00;;;13.60;;
26211;SDS011;13951;49.516;6.094;2023-11-18T07:30:52;104.27;;;12.83;;
26211;SDS011;13951;49.516;6.094;2023-11-18T07:33:26;74.70;;;12.40;;
26211;SDS011;13951;49.516;6.094;2023-11-18T07:35:59;80.70;;;13.73;;
26211;SDS011;13951;49.516;6.094;2023-11-18T07:38:35;93.53;;;14.10;;
26211;SDS011;13951;49.516;6.094;2023-11-18T07:41:09;53.43;;;12.63;;
26211;SDS011;13951;49.516;6.094;2023-11-18T07:43:52;95.80;;;13.80;;
26211;SDS011;13951;49.516;6.094;2023-11-18T07:46:27;52.13;;;13.73;;
26211;SDS011;13951;49.516;6.094;2023-11-18T07:49:04;83.97;;;14.90;;
26211;SDS011;13951;49.516;6.094;2023-11-18T07:51:38;71.47;;;14.80;;
26211;SDS011;13951;49.516;6.094;2023-11-18T07:54:14;97.57;;;15.77;;
26211;SDS011;13951;49.516;6.094;2023-11-18T07:56:48;68.47;;;14.33;;
26211;SDS011;13951;49.516;6.094;2023-11-18T07:59:21;67.57;;;14.37;;
26211;SDS011;13951;49.516;6.094;2023-11-18T08:01:56;109.63;;;14.77;;
26211;SDS011;13951;49.516;6.094;2023-11-18T08:04:31;77.60;;;14.90;;
26211;SDS011;13951;49.516;6.094;2023-11-18T08:07:05;93.30;;;14.83;;
26211;SDS011;13951;49.516;6.094;2023-11-18T08:09:38;86.80;;;15.37;;
26211;SDS011;13951;49.516;6.094;2023-11-18T08:12:12;54.40;;;14.93;;
26211;SDS011;13951;49.516;6.094;2023-11-18T08:14:45;86.20;;;16.23;;
26211;SDS011;13951;49.516;6.094;2023-11-18T08:17:19;50.80;;;15.33;;
26211;SDS011;13951;49.516;6.094;2023-11-18T08:19:52;62.67;;;16.07;;
26211;SDS011;13951;49.516;6.094;2023-11-18T08:22:26;55.07;;;15.43;;
26211;SDS011;13951;49.516;6.094;2023-11-18T08:25:00;45.10;;;15.77;;
26211;SDS011;13951;49.516;6.094;2023-11-18T08:27:34;79.93;;;15.30;;
26211;SDS011;13951;49.516;6.094;2023-11-18T08:30:08;33.07;;;15.13;;
26211;SDS011;13951;49.516;6.094;2023-11-18T08:32:44;30.53;;;14.67;;
26211;SDS011;13951;49.516;6.094;2023-11-18T08:35:18;45.37;;;14.20;;
26211;SDS011;13951;49.516;6.094;2023-11-18T08:37:53;42.93;;;14.10;;
26211;SDS011;13951;49.516;6.094;2023-11-18T08:40:27;42.97;;;14.87;;
26211;SDS011;13951;49.516;6.094;2023-11-18T08:43:01;32.63;;;13.73;;
26211;SDS011;13951;49.516;6.094;2023-11-18T08:45:40;28.27;;;14.10;;
26211;SDS011;13951;49.516;6.094;2023-11-18T08:48:13;44.23;;;14.63;;
26211;SDS011;13951;49.516;6.094;2023-11-18T08:50:48;30.63;;;14.40;;
26211;SDS011;13951;49.516;6.094;2023-11-18T08:53:24;35.27;;;14.23;;
26211;SDS011;13951;49.516;6.094;2023-11-18T08:55:58;30.87;;;14.70;;
26211;SDS011;13951;49.516;6.094;2023-11-18T08:58:32;27.67;;;14.37;;
26211;SDS011;13951;49.516;6.094;2023-11-18T09:01:07;28.47;;;14.63;;
26211;SDS011;13951;49.516;6.094;2023-11-18T09:03:47;30.60;;;14.97;;
26211;SDS011;13951;49.516;6.094;2023-11-18T09:06:25;30.27;;;15.10;;
26211;SDS011;13951;49.516;6.094;2023-11-18T09:09:01;28.10;;;15.50;;
26211;SDS011;13951;49.516;6.094;2023-11-18T09:11:38;34.63;;;15.93;;
26211;SDS011;13951;49.516;6.094;2023-11-18T09:14:13;27.40;;;15.03;;
26211;SDS011;13951;49.516;6.094;2023-11-18T09:16:47;30.73;;;16.23;;
26211;SDS011;13951;49.516;6.094;2023-11-18T09:19:21;31.43;;;16.30;;
26211;SDS011;13951;49.516;6.094;2023-11-18T09:21:55;33.27;;;15.40;;
26211;SDS011;13951;49.516;6.094;2023-11-18T09:24:28;31.67;;;15.40;;
26211;SDS011;13951;49.516;6.094;2023-11-18T09:27:06;28.20;;;14.80;;
26211;SDS011;13951;49.516;6.094;2023-11-18T09:29:41;35.00;;;15.57;;
26211;SDS011;13951;49.516;6.094;2023-11-18T09:32:16;30.93;;;15.37;;
26211;SDS011;13951;49.516;6.094;2023-11-18T09:34:52;30.37;;;15.77;;
26211;SDS011;13951;49.516;6.094;2023-11-18T09:37:25;28.40;;;14.83;;
26211;SDS011;13951;49.516;6.094;2023-11-18T09:39:59;31.33;;;15.20;;
26211;SDS011;13951;49.516;6.094;2023-11-18T09:42:43;27.23;;;15.00;;
26211;SDS011;13951;49.516;6.094;2023-11-18T09:45:17;25.57;;;14.23;;
26211;SDS011;13951;49.516;6.094;2023-11-18T09:47:52;26.80;;;14.37;;
26211;SDS011;13951;49.516;6.094;2023-11-18T09:50:27;30.17;;;15.43;;
26211;SDS011;13951;49.516;6.094;2023-11-18T09:53:02;26.87;;;14.10;;
26211;SDS011;13951;49.516;6.094;2023-11-18T09:55:45;27.27;;;14.07;;
26211;SDS011;13951;49.516;6.094;2023-11-18T09:58:20;30.20;;;15.00;;
26211;SDS011;13951;49.516;6.094;2023-11-18T10:00:59;25.47;;;14.57;;
26211;SDS011;13951;49.516;6.094;2023-11-18T10:03:34;25.47;;;14.77;;
26211;SDS011;13951;49.516;6.094;2023-11-18T10:06:10;28.17;;;14.50;;
26211;SDS011;13951;49.516;6.094;2023-11-18T10:08:44;26.63;;;14.03;;
26211;SDS011;13951;49.516;6.094;2023-11-18T10:11:27;28.60;;;14.33;;
26211;SDS011;13951;49.516;6.094;2023-11-18T10:14:01;23.57;;;12.93;;
26211;SDS011;13951;49.516;6.094;2023-11-18T10:16:38;26.10;;;13.97;;
26211;SDS011;13951;49.516;6.094;2023-11-18T10:19:12;26.93;;;14.33;;
26211;SDS011;13951;49.516;6.094;2023-11-18T10:21:46;20.93;;;12.97;;
26211;SDS011;13951;49.516;6.094;2023-11-18T10:24:22;27.17;;;13.37;;
26211;SDS011;13951;49.516;6.094;2023-11-18T10:26:55;26.60;;;13.60;;
26211;SDS011;13951;49.516;6.094;2023-11-18T10:29:29;22.93;;;12.77;;
26211;SDS011;13951;49.516;6.094;2023-11-18T10:32:06;21.80;;;12.77;;
26211;SDS011;13951;49.516;6.094;2023-11-18T10:34:40;25.07;;;13.20;;
26211;SDS011;13951;49.516;6.094;2023-11-18T10:37:14;25.23;;;13.33;;
26211;SDS011;13951;49.516;6.094;2023-11-18T10:39:49;27.93;;;13.27;;
26211;SDS011;13951;49.516;6.094;2023-11-18T10:42:27;22.23;;;13.60;;
26211;SDS011;13951;49.516;6.094;2023-11-18T10:45:06;27.27;;;13.13;;
26211;SDS011;13951;49.516;6.094;2023-11-18T10:47:42;21.33;;;12.37;;
26211;SDS011;13951;49.516;6.094;2023-11-18T10:50:15;22.77;;;12.37;;
26211;SDS011;13951;49.516;6.094;2023-11-18T10:52:52;23.17;;;12.87;;
26211;SDS011;13951;49.516;6.094;2023-11-18T10:55:36;23.27;;;13.13;;
26211;SDS011;13951;49.516;6.094;2023-11-18T10:58:09;28.03;;;13.57;;
26211;SDS011;13951;49.516;6.094;2023-11-18T11:00:50;23.67;;;12.40;;
26211;SDS011;13951;49.516;6.094;2023-11-18T11:03:25;22.30;;;13.40;;
26211;SDS011;13951;49.516;6.094;2023-11-18T11:06:15;21.43;;;12.83;;
26211;SDS011;13951;49.516;6.094;2023-11-18T11:08:52;24.67;;;13.43;;
26211;SDS011;13951;49.516;6.094;2023-11-18T11:11:26;21.53;;;12.23;;
26211;SDS011;13951;49.516;6.094;2023-11-18T11:14:01;23.13;;;12.87;;
26211;SDS011;13951;49.516;6.094;2023-11-18T11:16:38;22.53;;;12.27;;
26211;SDS011;13951;49.516;6.094;2023-11-18T11:19:26;18.43;;;12.07;;
26211;SDS011;13951;49.516;6.094;2023-11-18T11:22:07;20.87;;;11.87;;
26211;SDS011;13951;49.516;6.094;2023-11-18T11:28:07;22.37;;;11.77;;
26211;SDS011;13951;49.516;6.094;2023-11-18T11:30:22;20.50;;;11.63;;
26211;SDS011;13951;49.516;6.094;2023-11-18T11:33:01;20.73;;;12.67;;
26211;SDS011;13951;49.516;6.094;2023-11-18T11:35:36;19.67;;;11.47;;
26211;SDS011;13951;49.516;6.094;2023-11-18T11:38:17;19.07;;;11.50;;
26211;SDS011;13951;49.516;6.094;2023-11-18T11:40:51;18.93;;;11.37;;
26211;SDS011;13951;49.516;6.094;2023-11-18T11:43:26;16.87;;;9.70;;
26211;SDS011;13951;49.516;6.094;2023-11-18T11:46:01;18.40;;;9.97;;
26211;SDS011;13951;49.516;6.094;2023-11-18T11:48:43;17.30;;;9.87;;
26211;SDS011;13951;49.516;6.094;2023-11-18T11:51:30;19.40;;;10.77;;
26211;SDS011;13951;49.516;6.094;2023-11-18T11:54:11;15.03;;;9.67;;
26211;SDS011;13951;49.516;6.094;2023-11-18T11:56:48;18.00;;;10.50;;
26211;SDS011;13951;49.516;6.094;2023-11-18T12:02:17;16.80;;;9.90;;
26211;SDS011;13951;49.516;6.094;2023-11-18T12:04:50;18.20;;;10.47;;
26211;SDS011;13951;49.516;6.094;2023-11-18T12:07:27;21.13;;;12.53;;
26211;SDS011;13951;49.516;6.094;2023-11-18T12:10:00;19.47;;;10.57;;
26211;SDS011;13951;49.516;6.094;2023-11-18T12:12:38;18.37;;;10.73;;
26211;SDS011;13951;49.516;6.094;2023-11-18T12:15:14;20.03;;;10.60;;
26211;SDS011;13951;49.516;6.094;2023-11-18T12:23:28;20.20;;;10.20;;
26211;SDS011;13951;49.516;6.094;2023-11-18T12:26:03;16.20;;;9.03;;
26211;SDS011;13951;49.516;6.094;2023-11-18T12:28:57;17.63;;;9.87;;
26211;SDS011;13951;49.516;6.094;2023-11-18T12:31:40;18.10;;;9.37;;
26211;SDS011;13951;49.516;6.094;2023-11-18T12:34:14;17.10;;;9.90;;
26211;SDS011;13951;49.516;6.094;2023-11-18T12:36:56;18.03;;;9.40;;
26211;SDS011;13951;49.516;6.094;2023-11-18T12:39:47;15.67;;;9.17;;
26211;SDS011;13951;49.516;6.094;2023-11-18T12:45:31;14.40;;;8.67;;
26211;SDS011;13951;49.516;6.094;2023-11-18T12:48:14;14.93;;;8.53;;
26211;SDS011;13951;49.516;6.094;2023-11-18T12:50:48;15.23;;;8.67;;
26211;SDS011;13951;49.516;6.094;2023-11-18T12:53:23;15.30;;;8.53;;
26211;SDS011;13951;49.516;6.094;2023-11-18T12:56:01;15.53;;;8.97;;
26211;SDS011;13951;49.516;6.094;2023-11-18T12:58:34;10.90;;;7.53;;
26211;SDS011;13951;49.516;6.094;2023-11-18T13:01:08;14.63;;;7.87;;
26211;SDS011;13951;49.516;6.094;2023-11-18T13:03:46;12.33;;;7.53;;
26211;SDS011;13951;49.516;6.094;2023-11-18T13:06:20;14.77;;;7.63;;
26211;SDS011;13951;49.516;6.094;2023-11-18T13:08:57;12.33;;;7.80;;
26211;SDS011;13951;49.516;6.094;2023-11-18T13:11:34;12.03;;;7.53;;
26211;SDS011;13951;49.516;6.094;2023-11-18T13:14:15;11.70;;;6.73;;
26211;SDS011;13951;49.516;6.094;2023-11-18T13:16:49;8.87;;;5.57;;
26211;SDS011;13951;49.516;6.094;2023-11-18T13:19:25;8.63;;;4.80;;
26211;SDS011;13951;49.516;6.094;2023-11-18T13:22:07;8.07;;;4.50;;
26211;SDS011;13951;49.516;6.094;2023-11-18T13:24:41;5.87;;;3.40;;
26211;SDS011;13951;49.516;6.094;2023-11-18T13:27:18;5.87;;;3.10;;
26211;SDS011;13951;49.516;6.094;2023-11-18T13:29:52;5.23;;;2.77;;
26211;SDS011;13951;49.516;6.094;2023-11-18T13:32:26;6.87;;;2.90;;
26211;SDS011;13951;49.516;6.094;2023-11-18T13:35:01;6.33;;;2.83;;
26211;SDS011;13951;49.516;6.094;2023-11-18T13:37:34;5.00;;;2.60;;
26211;SDS011;13951;49.516;6.094;2023-11-18T13:40:08;4.37;;;2.40;;
26211;SDS011;13951;49.516;6.094;2023-11-18T13:42:42;5.00;;;2.20;;
26211;SDS011;13951;49.516;6.094;2023-11-18T13:45:15;5.17;;;2.00;;
26211;SDS011;13951;49.516;6.094;2023-11-18T13:48:07;3.70;;;1.83;;
26211;SDS011;13951;49.516;6.094;2023-11-18T13:50:41;2.70;;;1.83;;
26211;SDS011;13951;49.516;6.094;2023-11-18T13:53:16;6.67;;;2.00;;
26211;SDS011;13951;49.516;6.094;2023-11-18T13:55:49;4.43;;;1.90;;
26211;SDS011;13951;49.516;6.094;2023-11-18T13:58:22;4.73;;;2.20;;
26211;SDS011;13951;49.516;6.094;2023-11-18T14:00:56;7.23;;;1.47;;
26211;SDS011;13951;49.516;6.094;2023-11-18T14:03:30;3.00;;;1.60;;
26211;SDS011;13951;49.516;6.094;2023-11-18T14:06:07;2.87;;;1.83;;
26211;SDS011;13951;49.516;6.094;2023-11-18T14:08:44;2.10;;;1.30;;
26211;SDS011;13951;49.516;6.094;2023-11-18T14:11:18;3.87;;;1.57;;
26211;SDS011;13951;49.516;6.094;2023-11-18T14:13:52;4.17;;;1.67;;
26211;SDS011;13951;49.516;6.094;2023-11-18T14:16:26;2.00;;;1.40;;
26211;SDS011;13951;49.516;6.094;2023-11-18T14:18:59;3.57;;;1.37;;
26211;SDS011;13951;49.516;6.094;2023-11-18T14:21:33;4.47;;;1.70;;
26211;SDS011;13951;49.516;6.094;2023-11-18T14:24:07;4.73;;;1.90;;
26211;SDS011;13951;49.516;6.094;2023-11-18T14:26:43;3.40;;;1.90;;
26211;SDS011;13951;49.516;6.094;2023-11-18T14:29:16;2.13;;;1.60;;
26211;SDS011;13951;49.516;6.094;2023-11-18T14:31:51;2.00;;;1.40;;
26211;SDS011;13951;49.516;6.094;2023-11-18T14:34:25;2.57;;;1.60;;
26211;SDS011;13951;49.516;6.094;2023-11-18T14:36:58;2.10;;;1.60;;
26211;SDS011;13951;49.516;6.094;2023-11-18T14:39:33;3.57;;;1.80;;
26211;SDS011;13951;49.516;6.094;2023-11-18T14:42:09;1.70;;;1.33;;
26211;SDS011;13951;49.516;6.094;2023-11-18T14:44:42;2.20;;;1.63;;
26211;SDS011;13951;49.516;6.094;2023-11-18T14:47:15;4.90;;;2.03;;
26211;SDS011;13951;49.516;6.094;2023-11-18T14:49:49;3.67;;;1.50;;
26211;SDS011;13951;49.516;6.094;2023-11-18T14:52:22;1.93;;;1.30;;
26211;SDS011;13951;49.516;6.094;2023-11-18T14:54:56;1.83;;;1.23;;
26211;SDS011;13951;49.516;6.094;2023-11-18T14:57:29;2.10;;;1.23;;
26211;SDS011;13951;49.516;6.094;2023-11-18T15:00:03;1.83;;;1.17;;
26211;SDS011;13951;49.516;6.094;2023-11-18T15:02:40;1.40;;;1.20;;
26211;SDS011;13951;49.516;6.094;2023-11-18T15:05:14;2.70;;;1.17;;
26211;SDS011;13951;49.516;6.094;2023-11-18T15:07:51;2.60;;;1.10;;
26211;SDS011;13951;49.516;6.094;2023-11-18T15:10:26;3.13;;;1.23;;
26211;SDS011;13951;49.516;6.094;2023-11-18T15:13:00;2.40;;;1.43;;
26211;SDS011;13951;49.516;6.094;2023-11-18T15:15:34;3.77;;;1.80;;
26211;SDS011;13951;49.516;6.094;2023-11-18T15:18:07;2.50;;;1.90;;
26211;SDS011;13951;49.516;6.094;2023-11-18T15:20:46;3.23;;;2.20;;
26211;SDS011;13951;49.516;6.094;2023-11-18T15:23:20;2.37;;;1.50;;
26211;SDS011;13951;49.516;6.094;2023-11-18T15:25:58;1.47;;;1.13;;
26211;SDS011;13951;49.516;6.094;2023-11-18T15:28:31;2.83;;;1.20;;
26211;SDS011;13951;49.516;6.094;2023-11-18T15:31:05;1.63;;;1.20;;